Time;durP1;ratioP1;P1;durP2;ratioP2;P2;SDS_P1;SDS_P2;PMS_P1;PMS_P2;Temp;Humidity;BMP_temperature;BMP_pressure;BME280_temperature;BME280_humidity;BME280_pressure;Samples;Min_cycle;Max_cycle;Signal;HPM_P1;HPM_P2
2022/10/23 00:01:38;;;;;;;31.30;12.60;;;;;;;12.58;100.00;101260.91;5010031;28;20457;-42
2022/10/23 00:04:10;;;;;;;48.20;14.88;;;;;;;12.52;100.00;101273.28;5011263;28;20042;-42
2022/10/23 00:06:36;;;;;;;42.30;13.85;;;;;;;12.47;100.00;101264.91;5011382;28;20064;-42
2022/10/23 00:09:04;;;;;;;41.28;14.02;;;;;;;12.48;100.00;101261.19;5010697;28;20370;-42
2022/10/23 00:11:29;;;;;;;;;;;;;;;12.52;100.00;101253.53;5011439;28;20510;-42
2022/10/23 00:13:57;;;;;;;38.92;14.98;;;;;;;12.50;100.00;101264.53;5010602;28;19917;-42
2022/10/23 00:16:22;;;;;;;37.13;12.98;;;;;;;12.49;100.00;101264.72;5011085;28;20342;-42
2022/10/23 00:18:48;;;;;;;31.70;13.77;;;;;;;12.48;100.00;101261.19;5010532;28;20056;-43
2022/10/23 00:21:14;;;;;;;29.70;13.40;;;;;;;12.47;100.00;101264.06;5010808;28;20556;-43
2022/10/23 00:23:40;;;;;;;39.80;14.25;;;;;;;12.49;100.00;101257.44;5010442;28;20029;-43
2022/10/23 00:26:07;;;;;;;39.63;14.65;;;;;;;12.49;100.00;101256.63;5010974;28;20366;-43
2022/10/23 00:28:33;;;;;;;39.63;14.35;;;;;;;12.49;100.00;101260.16;5010690;28;20033;-42
2022/10/23 00:31:02;;;;;;;38.55;15.15;;;;;;;12.50;100.00;101269.91;5011099;28;20124;-43
2022/10/23 00:33:27;;;;;;;40.70;14.10;;;;;;;12.49;100.00;101260.16;5010636;28;20029;-43
2022/10/23 00:35:52;;;;;;;36.40;14.13;;;;;;;12.48;100.00;101266.59;5011951;28;20030;-42
2022/10/23 00:38:18;;;;;;;32.97;14.40;;;;;;;12.47;100.00;101264.06;5010265;28;20057;-43
2022/10/23 00:40:45;;;;;;;36.38;13.60;;;;;;;12.43;100.00;101258.19;5010014;28;20133;-42
2022/10/23 00:43:25;;;;;;;28.65;13.00;;;;;;;12.42;100.00;101256.50;5010763;28;20084;-43
2022/10/23 00:45:51;;;;;;;33.58;14.57;;;;;;;12.38;100.00;101255.22;5010359;28;20022;-43
2022/10/23 00:48:17;;;;;;;41.42;13.68;;;;;;;12.34;100.00;101243.09;5010653;28;20033;-43
2022/10/23 00:50:42;;;;;;;37.53;14.43;;;;;;;12.33;100.00;101246.81;5010273;28;20045;-42
2022/10/23 00:53:09;;;;;;;28.58;13.52;;;;;;;12.28;100.00;101250.06;5008626;28;20033;-44
2022/10/23 00:55:35;;;;;;;37.72;14.10;;;;;;;12.28;100.00;101249.22;5010285;28;20389;-42
2022/10/23 00:58:00;;;;;;;43.83;14.68;;;;;;;12.27;100.00;101248.41;5009547;28;20042;-42
2022/10/23 01:00:41;;;;;;;35.55;13.95;;;;;;;12.27;100.00;101242.16;5010253;28;20355;-42
2022/10/23 01:03:06;;;;;;;41.22;15.85;;;;;;;12.27;100.00;101242.16;5010267;28;20038;-43
2022/10/23 01:05:40;;;;;;;35.97;14.25;;;;;;;12.30;100.00;101241.81;5009944;28;20447;-42
2022/10/23 01:08:10;;;;;;;34.30;15.27;;;;;;;12.31;100.00;101238.06;4993723;28;20171;-42
2022/10/23 01:10:46;;;;;;;40.30;15.80;;;;;;;12.30;100.00;101239.09;5005994;28;20116;-44
2022/10/23 01:13:20;;;;;;;32.78;15.45;;;;;;;12.30;100.00;101241.81;5010331;28;20115;-42
2022/10/23 01:15:52;;;;;;;43.20;15.98;;;;;;;12.28;100.00;101233.88;5018392;28;20034;-41
2022/10/23 01:18:25;;;;;;;34.65;14.10;;;;;;;12.28;100.00;101238.44;5009238;28;20045;-42
2022/10/23 01:21:11;;;;;;;39.25;15.88;;;;;;;12.28;100.00;101236.56;5008742;28;20168;-42
2022/10/23 01:23:45;;;;;;;40.28;15.27;;;;;;;12.28;100.00;101233.88;5009452;28;20030;-42
2022/10/23 01:26:26;;;;;;;37.55;15.57;;;;;;;12.29;100.00;101237.41;5026907;28;20053;-43
2022/10/23 01:29:18;;;;;;;33.38;16.85;;;;;;;12.29;100.00;101229.31;5010922;28;20109;-42
2022/10/23 01:31:58;;;;;;;37.35;16.77;;;;;;;12.29;100.00;101226.59;5001359;28;20045;-42
2022/10/23 01:34:31;;;;;;;44.40;15.52;;;;;;;12.32;100.00;101226.25;5008703;28;20037;-43
2022/10/23 01:36:57;;;;;;;34.33;16.88;;;;;;;12.32;100.00;101228.09;5000738;28;20065;-43
2022/10/23 01:39:34;;;;;;;27.50;15.32;;;;;;;12.30;100.00;101220.22;5004747;28;20065;-42
2022/10/23 01:42:10;;;;;;;46.80;17.98;;;;;;;12.33;100.00;101219.00;5010224;28;20030;-42
2022/10/23 01:44:59;;;;;;;31.50;16.13;;;;;;;12.38;100.00;101211.19;5008396;28;20026;-42
2022/10/23 01:47:27;;;;;;;47.00;17.20;;;;;;;12.35;100.00;101196.19;4997295;28;20141;-42
2022/10/23 01:49:55;;;;;;;37.72;16.55;;;;;;;12.30;100.00;101209.41;5009052;28;20045;-43
2022/10/23 01:52:20;;;;;;;37.90;16.30;;;;;;;12.27;100.00;101199.81;5012902;28;20038;-41
2022/10/23 01:54:46;;;;;;;33.35;17.00;;;;;;;12.26;100.00;101208.91;5013520;28;20028;-42
2022/10/23 01:57:13;;;;;;;38.67;16.95;;;;;;;12.25;100.00;101196.47;5012741;28;20034;-42
2022/10/23 01:59:50;;;;;;;47.78;17.25;;;;;;;12.23;100.00;101203.06;5013575;28;20036;-42
2022/10/23 02:02:17;;;;;;;44.47;17.65;;;;;;;12.20;100.00;101214.22;5009766;28;20030;-42
2022/10/23 02:05:12;;;;;;;42.63;16.77;;;;;;;12.17;100.00;101203.81;5010091;28;20125;-42
2022/10/23 02:07:37;;;;;;;40.58;17.88;;;;;;;12.13;100.00;101199.78;5011042;28;20108;-41
2022/10/23 02:10:04;;;;;;;30.00;16.83;;;;;;;12.15;100.00;101197.75;5014376;28;20049;-42
2022/10/23 02:13:08;;;;;;;33.95;16.73;;;;;;;12.12;100.00;101185.47;5014663;28;20034;-42
2022/10/23 02:15:33;;;;;;;42.80;16.92;;;;;;;12.10;100.00;101192.91;5012546;28;20117;-42
2022/10/23 02:18:40;;;;;;;37.33;17.33;;;;;;;12.10;100.00;101175.88;5014494;28;20105;-42
2022/10/23 02:21:09;;;;;;;38.67;16.55;;;;;;;12.11;100.00;101178.38;4991120;28;20050;-43
2022/10/23 02:23:40;;;;;;;39.67;16.70;;;;;;;12.05;100.00;101181.81;5010743;28;20022;-42
2022/10/23 02:26:18;;;;;;;40.00;16.67;;;;;;;12.01;100.00;101184.06;5013998;28;20092;-41
2022/10/23 02:28:51;;;;;;;;;;;;;;;11.98;100.00;101176.34;4997315;28;20041;-44
2022/10/23 02:31:18;;;;;;;44.45;17.75;;;;;;;11.93;100.00;101170.66;5012662;28;19978;-41
2022/10/23 02:33:44;;;;;;;42.97;16.70;;;;;;;11.91;100.00;101172.69;5012869;28;20018;-42
2022/10/23 02:36:10;;;;;;;40.40;18.27;;;;;;;11.88;100.00;101174.91;5014100;28;20034;-43
2022/10/23 02:38:44;;;;;;;36.33;17.77;;;;;;;11.88;100.00;101172.22;5014008;28;20521;-42
2022/10/23 02:41:35;;;;;;;47.65;17.73;;;;;;;11.86;100.00;101164.28;5012020;28;20526;-43
2022/10/23 02:44:03;;;;;;;41.92;16.85;;;;;;;11.86;100.00;101164.28;5014016;28;20057;-43
2022/10/23 02:46:51;;;;;;;35.85;16.90;;;;;;;11.87;100.00;101152.47;5013575;28;20030;-42
2022/10/23 02:49:31;;;;;;;38.83;17.50;;;;;;;11.88;100.00;101146.09;5000617;28;20042;-42
2022/10/23 02:52:05;;;;;;;41.65;17.33;;;;;;;11.89;100.00;101136.97;5013892;28;20492;-43
2022/10/23 02:54:40;;;;;;;38.28;18.33;;;;;;;11.89;100.00;101138.81;5012202;28;20038;-42
2022/10/23 02:57:23;;;;;;;39.33;16.67;;;;;;;11.86;100.00;101131.94;5012657;28;20033;-42
2022/10/23 03:00:01;;;;;;;36.80;17.63;;;;;;;11.85;100.00;101124.84;5012817;28;20111;-42
2022/10/23 03:02:39;;;;;;;41.25;16.58;;;;;;;11.89;100.00;101125.34;4996397;28;20026;-42
2022/10/23 03:05:08;;;;;;;36.03;17.23;;;;;;;11.93;100.00;101119.41;5012356;28;20492;-43
2022/10/23 03:07:33;;;;;;;37.80;17.70;;;;;;;11.95;100.00;101120.03;4997054;28;20384;-43
2022/10/23 03:09:59;;;;;;;36.05;17.08;;;;;;;11.92;100.00;101114.19;5013355;28;20054;-43
2022/10/23 03:12:24;;;;;;;36.28;16.35;;;;;;;11.98;100.00;101114.28;5013341;28;20018;-41
2022/10/23 03:14:49;;;;;;;46.90;17.10;;;;;;;12.00;100.00;101112.22;5013226;28;20037;-41
2022/10/23 03:17:15;;;;;;;41.53;17.58;;;;;;;11.98;100.00;101114.28;5012962;28;20033;-42
2022/10/23 03:19:40;;;;;;;35.35;16.42;;;;;;;11.98;100.00;101108.03;5013272;28;20029;-42
2022/10/23 03:22:05;;;;;;;39.17;16.77;;;;;;;11.96;100.00;101105.53;5013126;28;20117;-41
2022/10/23 03:24:31;;;;;;;48.42;17.65;;;;;;;11.99;100.00;101098.94;5013217;28;20018;-42
2022/10/23 03:26:56;;;;;;;42.58;18.25;;;;;;;11.97;100.00;101100.97;5012456;28;20034;-42
2022/10/23 03:29:21;;;;;;;43.90;17.85;;;;;;;11.98;100.00;101097.25;5011469;28;20022;-44
2022/10/23 03:31:46;;;;;;;39.30;16.80;;;;;;;11.98;100.00;101098.09;5011862;28;20030;-43
2022/10/23 03:34:13;;;;;;;44.90;18.67;;;;;;;11.99;100.00;101097.06;5011804;28;20036;-42
2022/10/23 03:36:39;;;;;;;42.63;18.33;;;;;;;11.97;100.00;101096.41;5011743;28;20037;-43
2022/10/23 03:39:04;;;;;;;41.35;16.80;;;;;;;11.95;100.00;101082.28;5011411;28;20476;-42
2022/10/23 03:41:30;;;;;;;44.55;17.30;;;;;;;11.92;100.00;101079.94;5011444;28;20038;-42
2022/10/23 03:43:55;;;;;;;41.53;17.85;;;;;;;11.96;100.00;101077.75;5011344;28;20029;-41
2022/10/23 03:46:20;;;;;;;40.00;17.02;;;;;;;11.95;100.00;101076.88;5015452;28;20347;-41
2022/10/23 03:48:46;;;;;;;37.63;17.45;;;;;;;11.94;100.00;101071.69;5018346;28;20528;-42
2022/10/23 03:51:11;;;;;;;38.65;16.23;;;;;;;11.92;100.00;101069.16;5011737;28;20409;-43
2022/10/23 03:53:36;;;;;;;48.22;18.02;;;;;;;11.91;100.00;101063.97;5010091;28;20505;-41
2022/10/23 03:56:02;;;;;;;38.38;17.20;;;;;;;11.91;100.00;101062.09;5011307;28;20064;-42
2022/10/23 03:58:27;;;;;;;36.60;16.13;;;;;;;11.90;100.00;101060.44;5010821;28;20103;-43
2022/10/23 04:00:52;;;;;;;43.00;17.58;;;;;;;11.89;100.00;101056.03;5011342;28;20026;-43
2022/10/23 04:03:18;;;;;;;45.00;16.83;;;;;;;11.91;100.00;101048.63;5011229;28;20492;-42
2022/10/23 04:05:43;;;;;;;43.75;16.88;;;;;;;11.90;100.00;101043.41;5010925;28;20116;-42
2022/10/23 04:08:09;;;;;;;39.25;15.75;;;;;;;11.91;100.00;101048.63;5011064;28;20358;-41
2022/10/23 04:10:34;;;;;;;33.70;16.73;;;;;;;11.91;100.00;101051.31;5010754;28;20034;-43
2022/10/23 04:12:59;;;;;;;44.50;17.23;;;;;;;11.93;100.00;101051.97;5011333;28;20563;-43
2022/10/23 04:15:25;;;;;;;40.40;16.90;;;;;;;11.91;100.00;101043.22;5010071;28;20108;-42
2022/10/23 04:17:50;;;;;;;35.50;16.55;;;;;;;11.93;100.00;101041.19;5010821;28;20050;-41
2022/10/23 04:20:15;;;;;;;39.22;15.70;;;;;;;11.97;100.00;101033.53;5010647;28;20033;-41
2022/10/23 04:22:41;;;;;;;46.40;16.23;;;;;;;11.95;100.00;101033.72;5011176;28;20025;-41
2022/10/23 04:25:06;;;;;;;35.63;15.98;;;;;;;11.94;100.00;101029.34;5010864;28;20446;-41
2022/10/23 04:27:33;;;;;;;35.97;16.63;;;;;;;11.96;100.00;101024.63;5010616;28;21462;-41
2022/10/23 04:29:58;;;;;;;34.92;15.55;;;;;;;11.99;100.00;101029.63;5010915;28;20026;-42
2022/10/23 04:32:24;;;;;;;34.22;15.75;;;;;;;11.97;100.00;101030.84;5010508;28;20103;-42
2022/10/23 04:34:49;;;;;;;38.65;14.85;;;;;;;11.94;100.00;101032.06;5007299;28;20029;-41
2022/10/23 04:37:14;;;;;;;40.83;14.48;;;;;;;11.96;100.00;101029.19;5008673;28;20034;-41
2022/10/23 04:39:40;;;;;;;30.55;14.07;;;;;;;11.97;100.00;101018.19;4988504;28;20057;-41
2022/10/23 04:42:05;;;;;;;29.35;12.77;;;;;;;12.01;100.00;101015.97;5008404;28;20062;-41
2022/10/23 04:44:30;;;;;;;41.08;15.02;;;;;;;11.99;100.00;101013.47;5007840;28;20030;-41
2022/10/23 04:46:56;;;;;;;32.05;14.00;;;;;;;12.01;100.00;101022.19;5006513;28;20046;-42
2022/10/23 04:49:21;;;;;;;31.27;14.27;;;;;;;12.00;100.00;101020.50;5007573;28;20509;-42
2022/10/23 04:51:46;;;;;;;41.80;13.93;;;;;;;12.03;100.00;101020.16;5006129;28;20482;-41
2022/10/23 04:54:12;;;;;;;29.13;13.77;;;;;;;12.00;100.00;101023.22;5007488;28;20528;-42
2022/10/23 04:56:37;;;;;;;27.60;13.07;;;;;;;12.03;100.00;101020.16;5007699;28;20481;-43
2022/10/23 04:59:02;;;;;;;28.38;13.00;;;;;;;12.05;100.00;101012.69;5006987;28;20523;-41
2022/10/23 05:01:28;;;;;;;26.80;12.73;;;;;;;12.08;100.00;101008.78;5006285;28;20030;-41
2022/10/23 05:03:55;;;;;;;33.05;13.38;;;;;;;12.10;100.00;101011.31;5007185;28;20030;-42
2022/10/23 05:06:20;;;;;;;43.80;12.98;;;;;;;12.11;100.00;100999.47;5007474;28;20046;-42
2022/10/23 05:08:46;;;;;;;22.92;11.15;;;;;;;12.13;100.00;100997.44;5007300;28;20450;-41
2022/10/23 05:11:11;;;;;;;30.83;12.82;;;;;;;12.17;100.00;101001.44;5007646;28;20054;-41
2022/10/23 05:13:36;;;;;;;24.70;11.88;;;;;;;12.16;100.00;100997.88;5007524;28;20452;-42
2022/10/23 05:16:02;;;;;;;26.80;11.68;;;;;;;12.19;100.00;100991.28;5007647;28;20053;-42
2022/10/23 05:18:33;;;;;;;28.20;11.68;;;;;;;12.18;100.00;100995.84;5007429;28;20022;-41
2022/10/23 05:21:07;;;;;;;26.77;11.40;;;;;;;12.19;100.00;100993.97;5007798;28;20088;-41
2022/10/23 05:23:35;;;;;;;23.02;10.98;;;;;;;12.14;100.00;100993.69;5007926;28;20294;-42
2022/10/23 05:26:02;;;;;;;;;;;;;;;12.16;100.00;100988.97;5010823;28;20508;-40
2022/10/23 05:28:27;;;;;;;27.15;11.35;;;;;;;12.14;100.00;100996.41;5013222;28;20004;-41
2022/10/23 05:30:53;;;;;;;26.25;11.55;;;;;;;12.16;100.00;100997.06;5014145;28;20447;-43
2022/10/23 05:33:18;;;;;;;30.92;12.05;;;;;;;12.09;100.00;100994.28;5013784;28;20030;-41
2022/10/23 05:35:44;;;;;;;27.35;12.20;;;;;;;12.08;100.00;100998.00;5014098;28;20033;-41
2022/10/23 05:38:09;;;;;;;35.47;11.90;;;;;;;12.04;100.00;101007.50;4993704;28;20030;-41
2022/10/23 05:40:35;;;;;;;37.63;12.32;;;;;;;12.04;100.00;101004.81;5012578;28;20030;-42
2022/10/23 05:43:00;;;;;;;30.65;12.23;;;;;;;12.01;100.00;100989.84;5014056;28;20477;-42
2022/10/23 05:45:26;;;;;;;28.25;10.98;;;;;;;12.00;100.00;100982.75;5013456;28;20026;-42
2022/10/23 05:47:52;;;;;;;21.38;11.60;;;;;;;12.00;100.00;100976.53;5014376;28;20021;-40
2022/10/23 05:50:18;;;;;;;36.00;12.20;;;;;;;11.99;100.00;100991.03;5013613;28;20048;-40
2022/10/23 05:52:46;;;;;;;29.30;11.32;;;;;;;12.01;100.00;100984.44;5010008;28;20405;-41
2022/10/23 05:55:11;;;;;;;32.97;11.48;;;;;;;11.97;100.00;100972.34;5012053;28;20391;-43
2022/10/23 05:57:36;;;;;;;28.70;11.18;;;;;;;11.94;100.00;100972.72;5011861;28;20465;-41
2022/10/23 06:00:03;;;;;;;33.38;11.65;;;;;;;11.96;100.00;100959.88;5012960;28;20484;-41
2022/10/23 06:02:28;;;;;;;28.17;10.88;;;;;;;11.96;100.00;100959.88;5012300;28;20034;-42
2022/10/23 06:04:54;;;;;;;27.52;11.18;;;;;;;11.99;100.00;100958.69;5013770;28;20061;-41
2022/10/23 06:07:26;;;;;;;25.52;11.13;;;;;;;11.98;100.00;100962.38;5013844;28;20017;-43
2022/10/23 06:09:51;;;;;;;30.30;11.73;;;;;;;11.96;100.00;100969.84;5012872;28;20060;-41
2022/10/23 06:12:18;;;;;;;23.30;11.10;;;;;;;11.98;100.00;100963.25;5012843;28;20037;-43
2022/10/23 06:14:43;;;;;;;26.02;10.60;;;;;;;12.00;100.00;100955.78;5012033;28;20041;-42
2022/10/23 06:17:08;;;;;;;26.77;11.10;;;;;;;12.06;100.00;100946.13;5013325;28;20477;-42
2022/10/23 06:19:34;;;;;;;23.10;10.98;;;;;;;12.07;100.00;100945.91;5011950;28;20048;-42
2022/10/23 06:21:59;;;;;;;28.85;10.98;;;;;;;12.11;100.00;100937.44;5013349;28;20065;-42
2022/10/23 06:24:24;;;;;;;27.33;10.65;;;;;;;12.06;100.00;100944.25;5012919;28;20033;-41
2022/10/23 06:26:50;;;;;;;31.15;11.05;;;;;;;12.04;100.00;100946.28;5013105;28;20038;-42
2022/10/23 06:29:15;;;;;;;40.70;11.50;;;;;;;11.99;100.00;100943.31;5013425;28;20046;-42
2022/10/23 06:31:40;;;;;;;32.60;11.55;;;;;;;12.00;100.00;100936.88;5013016;28;20073;-42
2022/10/23 06:34:06;;;;;;;28.27;11.05;;;;;;;11.98;100.00;100933.56;5013579;28;20050;-42
2022/10/23 06:36:31;;;;;;;29.38;10.73;;;;;;;12.00;100.00;100928.78;5011904;28;20022;-43
2022/10/23 06:38:57;;;;;;;27.48;10.93;;;;;;;12.05;100.00;100930.94;5009384;28;20131;-41
2022/10/23 06:41:22;;;;;;;29.33;10.90;;;;;;;12.05;100.00;100929.06;5010270;28;20041;-43
2022/10/23 06:43:52;;;;;;;29.30;10.85;;;;;;;12.07;100.00;100921.63;5009354;28;20042;-41
2022/10/23 06:46:18;;;;;;;32.13;10.80;;;;;;;12.11;100.00;100921.25;5010061;28;20044;-43
2022/10/23 06:48:44;;;;;;;27.10;11.48;;;;;;;12.09;100.00;100913.34;5010589;28;20041;-42
2022/10/23 06:51:11;;;;;;;28.02;10.55;;;;;;;12.16;100.00;100910.72;5010958;28;20366;-42
2022/10/23 06:53:37;;;;;;;33.00;10.35;;;;;;;12.21;100.00;100914.50;5011041;28;20307;-41
2022/10/23 06:56:04;;;;;;;31.23;11.35;;;;;;;12.27;100.00;100912.94;5011441;28;20068;-43
2022/10/23 06:58:29;;;;;;;30.60;11.57;;;;;;;12.22;100.00;100912.69;5012853;28;20099;-42
2022/10/23 07:00:55;;;;;;;24.95;10.50;;;;;;;12.29;100.00;100911.69;5011735;28;20030;-43
2022/10/23 07:03:20;;;;;;;23.60;10.73;;;;;;;12.28;100.00;100914.59;5012959;28;20045;-41
2022/10/23 07:05:48;;;;;;;35.03;10.88;;;;;;;12.28;100.00;100914.59;5012703;28;20123;-42
2022/10/23 07:08:14;;;;;;;31.75;10.57;;;;;;;12.35;100.00;100907.41;5012932;28;20034;-42
2022/10/23 07:10:42;;;;;;;29.05;11.02;;;;;;;12.40;100.00;100899.59;5012566;28;20147;-42
2022/10/23 07:13:10;;;;;;;35.15;11.30;;;;;;;12.40;100.00;100902.28;5012930;28;20042;-42
2022/10/23 07:15:37;;;;;;;26.08;11.30;;;;;;;12.42;100.00;100900.19;5012715;28;20075;-43
2022/10/23 07:18:03;;;;;;;31.10;11.30;;;;;;;12.53;100.00;100879.94;5012851;28;20089;-42
2022/10/23 07:20:28;;;;;;;27.17;10.32;;;;;;;12.49;100.00;100884.06;5010984;28;20029;-42
2022/10/23 07:22:55;;;;;;;26.55;11.20;;;;;;;12.48;100.00;100891.34;5012664;28;20026;-42
2022/10/23 07:25:21;;;;;;;33.90;10.40;;;;;;;12.53;100.00;100890.75;5010962;28;20030;-42
2022/10/23 07:27:47;;;;;;;25.23;10.93;;;;;;;12.58;100.00;100895.56;5011374;28;20036;-42
2022/10/23 07:30:12;;;;;;;28.77;11.45;;;;;;;12.55;100.00;100887.88;5009485;28;20022;-43
2022/10/23 07:32:38;;;;;;;24.38;10.90;;;;;;;12.60;100.00;100890.81;5012104;28;20034;-42
2022/10/23 07:35:04;;;;;;;28.27;11.32;;;;;;;12.62;100.00;100895.00;5011218;28;20033;-42
2022/10/23 07:37:29;;;;;;;25.58;12.45;;;;;;;12.66;100.00;100890.03;5010712;28;20076;-42
2022/10/23 07:39:55;;;;;;;27.00;11.05;;;;;;;12.74;100.00;100881.78;5011904;28;20045;-41
2022/10/23 07:42:20;;;;;;;24.92;11.52;;;;;;;12.73;100.00;100877.44;5011862;28;20037;-42
2022/10/23 07:44:45;;;;;;;24.55;11.45;;;;;;;12.80;100.00;100875.63;5011328;28;20022;-42
2022/10/23 07:47:11;;;;;;;24.95;10.82;;;;;;;12.79;100.00;100873.09;5012382;28;20057;-43
2022/10/23 07:49:36;;;;;;;32.35;11.35;;;;;;;12.82;100.00;100868.16;5011802;28;20151;-42
2022/10/23 07:52:03;;;;;;;32.10;11.20;;;;;;;12.81;100.00;100874.59;5011392;28;20029;-42
2022/10/23 07:54:29;;;;;;;27.40;11.90;;;;;;;12.82;100.00;100862.78;5011678;28;20069;-42
2022/10/23 07:56:54;;;;;;;30.42;11.13;;;;;;;12.87;100.00;100865.69;5011969;28;20496;-42
2022/10/23 07:59:19;;;;;;;31.45;10.55;;;;;;;12.94;100.00;100853.06;5011641;28;20393;-42
2022/10/23 08:01:47;;;;;;;33.60;11.43;;;;;;;12.99;100.00;100849.78;5010462;28;20478;-42
2022/10/23 08:04:12;;;;;;;25.00;10.80;;;;;;;12.95;100.00;100854.75;5010657;28;20101;-43
2022/10/23 08:06:38;;;;;;;26.45;12.13;;;;;;;12.92;100.00;100865.94;5011784;28;20125;-42
2022/10/23 08:09:03;;;;;;;28.58;11.60;;;;;;;12.97;100.00;100859.94;5011930;28;20076;-42
2022/10/23 08:11:34;;;;;;;24.15;10.73;;;;;;;13.00;100.00;100846.03;5011365;28;20189;-42
2022/10/23 08:14:01;;;;;;;26.48;11.02;;;;;;;13.01;100.00;100861.25;5011561;28;20033;-42
2022/10/23 08:16:26;;;;;;;29.33;11.43;;;;;;;13.00;100.00;100853.31;5011201;28;20052;-42
2022/10/23 08:18:52;;;;;;;30.75;11.95;;;;;;;13.00;100.00;100845.22;5009141;28;20034;-42
2022/10/23 08:21:17;;;;;;;31.77;12.32;;;;;;;13.01;100.00;100838.78;5011051;28;20069;-42
2022/10/23 08:23:43;;;;;;;23.90;11.07;;;;;;;13.04;100.00;100838.41;5014079;28;20026;-42
2022/10/23 08:26:09;;;;;;;24.95;11.57;;;;;;;13.07;100.00;100838.00;5011453;28;20032;-42
2022/10/23 08:28:35;;;;;;;31.23;12.18;;;;;;;13.16;100.00;100832.25;5011198;28;20441;-43
2022/10/23 08:31:08;;;;;;;26.50;11.18;;;;;;;13.20;100.00;100829.13;4992746;28;20037;-42
2022/10/23 08:33:34;;;;;;;18.55;10.23;;;;;;;13.23;100.00;100821.44;5011067;28;20030;-42
2022/10/23 08:35:59;;;;;;;30.20;11.63;;;;;;;13.22;100.00;100818.94;5009915;28;20033;-42
2022/10/23 08:38:25;;;;;;;23.90;11.23;;;;;;;13.29;100.00;100817.97;5010757;28;20477;-42
2022/10/23 08:40:51;;;;;;;23.85;10.52;;;;;;;13.30;100.00;100806.13;5010044;28;20033;-43
2022/10/23 08:43:36;;;;;;;20.08;10.40;;;;;;;13.28;100.00;100813.59;5011143;28;20033;-43
2022/10/23 08:46:07;;;;;;;23.00;12.10;;;;;;;13.24;100.00;100820.41;5009556;28;20366;-42
2022/10/23 08:48:38;;;;;;;26.35;10.77;;;;;;;13.25;100.00;100808.56;4978003;28;20065;-43
2022/10/23 08:51:30;;;;;;;28.88;10.95;;;;;;;13.31;100.00;100812.38;5011175;28;20072;-44
2022/10/23 08:54:02;;;;;;;27.67;10.82;;;;;;;13.38;100.00;100805.13;5009731;28;20036;-42
2022/10/23 08:56:33;;;;;;;23.38;10.27;;;;;;;13.41;100.00;100806.59;5009497;28;20041;-42
2022/10/23 08:59:06;;;;;;;38.65;10.63;;;;;;;13.44;100.00;100806.19;5010831;28;20101;-42
2022/10/23 09:01:55;;;;;;;24.20;10.13;;;;;;;13.44;100.00;100800.78;5009702;28;20068;-42
2022/10/23 09:04:20;;;;;;;26.65;10.70;;;;;;;13.46;100.00;100798.72;5010170;28;20072;-42
2022/10/23 09:07:04;;;;;;;30.00;10.55;;;;;;;13.51;100.00;100793.56;5009148;28;20057;-42
2022/10/23 09:09:39;;;;;;;23.42;11.15;;;;;;;13.57;100.00;100788.16;5010245;28;20085;-43
2022/10/23 09:12:10;;;;;;;29.15;10.65;;;;;;;13.61;100.00;100792.13;4993379;28;20050;-42
2022/10/23 09:14:48;;;;;;;21.05;9.82;;;;;;;13.61;100.00;100791.28;5009656;28;20140;-44
2022/10/23 09:17:27;;;;;;;25.25;10.38;;;;;;;13.63;100.00;100783.78;5010868;28;20453;-43
2022/10/23 09:19:59;;;;;;;25.85;10.18;;;;;;;13.64;100.00;100782.78;5009292;28;20038;-42
2022/10/23 09:22:26;;;;;;;18.95;9.95;;;;;;;13.79;100.00;100793.41;5009653;28;20424;-42
2022/10/23 09:24:51;;;;;;;24.83;9.65;;;;;;;13.77;100.00;100780.09;5010854;28;20025;-43
2022/10/23 09:27:19;;;;;;;28.48;9.73;;;;;;;13.80;100.00;100768.88;5010936;28;20022;-43
2022/10/23 09:29:50;;;;;;;18.90;9.98;;;;;;;13.88;100.00;100757.03;5010442;28;20025;-42
2022/10/23 09:32:15;;;;;;;17.35;9.07;;;;;;;14.02;100.00;100753.28;5010416;28;20043;-42
2022/10/23 09:34:51;;;;;;;23.40;9.90;;;;;;;14.09;100.00;100745.19;5009275;28;20038;-42
2022/10/23 09:37:26;;;;;;;20.02;9.18;;;;;;;14.04;100.00;100748.50;5010815;28;20030;-42
2022/10/23 09:40:17;;;;;;;21.40;9.73;;;;;;;14.03;100.00;100757.69;5010595;28;20076;-43
2022/10/23 09:42:55;;;;;;;26.50;9.77;;;;;;;14.07;100.00;100746.44;5002280;28;20362;-43
2022/10/23 09:45:26;;;;;;;22.67;9.57;;;;;;;14.04;100.00;100748.50;5010866;28;20037;-41
2022/10/23 09:48:03;;;;;;;20.38;9.13;;;;;;;14.08;100.00;100739.97;5010109;28;20037;-42
2022/10/23 09:50:28;;;;;;;19.10;9.02;;;;;;;14.09;100.00;100738.94;4999357;28;20032;-42
2022/10/23 09:52:54;;;;;;;16.83;9.57;;;;;;;14.07;100.00;100741.03;5008865;28;20022;-42
2022/10/23 09:55:23;;;;;;;26.27;10.35;;;;;;;14.03;100.00;100727.06;5008964;28;20034;-42
2022/10/23 09:57:49;;;;;;;21.38;10.15;;;;;;;14.01;100.00;100726.44;5008956;28;20405;-42
2022/10/23 10:00:18;;;;;;;22.02;9.75;;;;;;;13.99;100.00;100723.13;5009103;28;20034;-42
2022/10/23 10:03:03;;;;;;;16.85;9.00;;;;;;;13.94;100.00;100725.59;5010357;28;20117;-42
2022/10/23 10:05:37;;;;;;;21.45;9.65;;;;;;;13.92;100.00;100727.69;5010276;28;20034;-43
2022/10/23 10:08:44;;;;;;;23.20;9.73;;;;;;;13.95;100.00;100724.56;5010727;28;20036;-42
2022/10/23 10:11:30;;;;;;;14.68;8.35;;;;;;;14.06;100.00;100715.84;4965472;28;20109;-44
2022/10/23 10:14:24;;;;;;;19.67;8.98;;;;;;;14.07;100.00;100714.78;4972553;28;20231;-42
2022/10/23 10:16:55;;;;;;;20.95;9.70;;;;;;;14.11;100.00;100707.91;4988197;28;20126;-42
2022/10/23 10:19:30;;;;;;;18.63;9.13;;;;;;;14.16;100.00;100702.69;4994637;28;20520;-42
2022/10/23 10:22:20;;;;;;;18.63;9.18;;;;;;;14.23;100.00;100700.81;5000121;28;20058;-41
2022/10/23 10:24:54;;;;;;;28.42;9.35;;;;;;;14.28;100.00;100703.75;5013428;28;20022;-42
2022/10/23 10:28:02;;;;;;;25.88;9.15;;;;;;;14.38;100.00;100686.25;5013378;28;20060;-42
2022/10/23 10:30:58;;;;;;;14.63;8.93;;;;;;;14.48;100.00;100668.53;4965931;28;20507;-42
2022/10/23 10:33:34;;;;;;;20.98;8.48;;;;;;;14.54;100.00;100658.75;4970967;28;20107;-42
2022/10/23 10:36:01;;;;;;;19.20;8.40;;;;;;;14.65;100.00;100652.66;4991689;28;20123;-42
2022/10/23 10:38:51;;;;;;;18.63;8.00;;;;;;;14.65;100.00;100655.38;5012791;28;20022;-42
2022/10/23 10:41:39;;;;;;;24.25;9.23;;;;;;;14.72;100.00;100641.81;5015092;28;20315;-40
2022/10/23 10:44:04;;;;;;;17.42;7.72;;;;;;;14.83;100.00;100621.34;5011101;28;20080;-42
2022/10/23 10:46:45;;;;;;;20.30;8.05;;;;;;;14.89;100.00;100615.06;5031637;28;20057;-43
2022/10/23 10:49:23;;;;;;;14.35;7.85;;;;;;;14.96;100.00;100596.88;5005793;28;20034;-41
2022/10/23 10:51:56;;;;;;;20.45;7.68;;;;;;;15.01;100.00;100583.53;5019624;28;20505;-42
2022/10/23 10:54:40;;;;;;;19.88;7.15;;;;;;;14.98;100.00;100569.56;5012153;28;20558;-43
2022/10/23 10:57:16;;;;;;;20.88;7.78;;;;;;;15.02;100.00;100560.78;5013889;28;20477;-42
2022/10/23 10:59:43;;;;;;;25.33;7.82;;;;;;;15.10;100.00;100554.28;5022667;28;20397;-43
2022/10/23 11:02:40;;;;;;;16.95;6.57;;;;;;;15.10;100.00;100546.97;5012814;28;20117;-41
2022/10/23 11:05:24;;;;;;;17.55;6.78;;;;;;;15.24;100.00;100547.69;5009652;28;20375;-41
2022/10/23 11:07:58;;;;;;;26.45;7.40;;;;;;;15.24;100.00;100555.81;5012548;28;20044;-42
2022/10/23 11:10:23;;;;;;;25.10;7.40;;;;;;;15.23;100.00;100564.19;5010186;28;20038;-41
2022/10/23 11:12:50;;;;;;;21.73;7.75;;;;;;;15.20;100.00;100564.63;5012508;28;20030;-42
2022/10/23 11:15:19;;;;;;;22.70;7.93;;;;;;;15.25;100.00;100559.38;5012056;28;20204;-43
2022/10/23 11:17:55;;;;;;;12.80;6.90;;;;;;;15.35;100.00;100544.28;5012557;28;20022;-41